Time;durP1;ratioP1;P1;durP2;ratioP2;P2;SDS_P1;SDS_P2;PMS_P1;PMS_P2;Temp;Humidity;BMP_temperature;BMP_pressure;BME280_temperature;BME280_humidity;BME280_pressure;Samples;Min_cycle;Max_cycle;Signal;HPM_P1;HPM_P2
2022/10/02 00:02:13;;;;;;;6.43;1.17;;;15.90;99.90;;;;;;6278022;28;20048;-84
2022/10/02 00:05:19;;;;;;;4.07;0.90;;;16.00;99.90;;;;;;6277522;28;20419;-83
2022/10/02 00:08:26;;;;;;;7.05;1.10;;;16.00;99.90;;;;;;6278424;28;20053;-84
2022/10/02 00:11:42;;;;;;;4.77;0.83;;;16.00;99.90;;;;;;6279129;28;20053;-83
2022/10/02 00:14:47;;;;;;;11.63;1.38;;;16.00;99.90;;;;;;6278255;28;20511;-84
2022/10/02 00:17:53;;;;;;;3.17;1.05;;;15.90;99.90;;;;;;6277911;28;20049;-83
2022/10/02 00:21:02;;;;;;;14.85;1.45;;;15.90;99.90;;;;;;6283967;28;20052;-84
2022/10/02 00:24:07;;;;;;;5.13;0.63;;;15.90;99.90;;;;;;6283786;28;20052;-83
2022/10/02 00:27:40;;;;;;;3.78;0.65;;;15.90;99.90;;;;;;6282774;28;20044;-84
2022/10/02 00:30:55;;;;;;;10.15;0.98;;;15.90;99.90;;;;;;6282355;28;20498;-83
2022/10/02 00:37:39;;;;;;;10.35;3.22;;;15.90;99.90;;;;;;6282609;28;20045;-84
2022/10/02 00:41:11;;;;;;;10.55;1.85;;;16.00;99.90;;;;;;6282630;28;20644;-84
2022/10/02 00:44:35;;;;;;;6.38;1.25;;;15.90;99.90;;;;;;6282468;28;20131;-83
2022/10/02 00:47:44;;;;;;;9.90;1.35;;;16.00;99.90;;;;;;6281228;28;20071;-84
2022/10/02 00:50:52;;;;;;;8.38;1.70;;;15.90;99.90;;;;;;6281257;28;20041;-83
2022/10/02 00:54:04;;;;;;;7.30;1.10;;;15.90;99.90;;;;;;6280794;28;21511;-83
2022/10/02 00:57:11;;;;;;;4.55;1.00;;;15.80;99.90;;;;;;6282346;28;20060;-83
2022/10/02 01:00:16;;;;;;;7.85;3.22;;;15.80;99.90;;;;;;6282485;28;20045;-83
2022/10/02 01:03:22;;;;;;;4.70;1.00;;;15.80;99.90;;;;;;6281793;28;20045;-83
2022/10/02 01:06:27;;;;;;;6.80;0.73;;;15.70;99.90;;;;;;6282795;28;20045;-82
2022/10/02 01:09:29;;;;;;;8.63;1.15;;;15.80;99.90;;;;;;6282014;28;20519;-83
2022/10/02 01:12:31;;;;;;;8.43;0.90;;;15.70;99.90;;;;;;6258402;28;20049;-83
2022/10/02 01:15:37;;;;;;;6.43;1.23;;;15.70;99.90;;;;;;6257380;28;20045;-83
2022/10/02 01:18:39;;;;;;;6.05;0.73;;;15.80;99.90;;;;;;6256825;28;20045;-83
2022/10/02 01:21:45;;;;;;;7.00;1.35;;;15.90;99.90;;;;;;6256731;28;20051;-83
2022/10/02 01:24:50;;;;;;;5.07;0.93;;;15.90;99.90;;;;;;6257290;28;20403;-82
2022/10/02 01:27:53;;;;;;;6.22;0.90;;;15.90;99.90;;;;;;6257015;28;20049;-83
2022/10/02 01:30:59;;;;;;;5.80;1.30;;;16.00;99.90;;;;;;6256071;28;20131;-83
2022/10/02 01:34:01;;;;;;;7.00;1.58;;;16.00;99.90;;;;;;6257469;28;20053;-83
2022/10/02 01:37:03;;;;;;;5.43;1.00;;;16.00;99.90;;;;;;6257192;28;20061;-83
2022/10/02 01:40:09;;;;;;;3.55;0.90;;;16.00;99.90;;;;;;6256307;28;20061;-83
2022/10/02 01:43:14;;;;;;;5.68;1.13;;;16.00;99.90;;;;;;6257452;28;20056;-84
2022/10/02 01:46:31;;;;;;;7.53;0.73;;;16.10;99.90;;;;;;6256406;28;20053;-83
2022/10/02 01:49:45;;;;;;;5.60;1.73;;;16.10;99.90;;;;;;6257147;28;20103;-82
2022/10/02 01:52:56;;;;;;;4.40;1.00;;;16.20;99.90;;;;;;6257969;28;20052;-83
2022/10/02 01:56:09;;;;;;;8.00;0.98;;;16.10;99.90;;;;;;6257355;28;20050;-83
2022/10/02 01:59:20;;;;;;;7.63;1.00;;;16.20;99.90;;;;;;6257716;28;20045;-83
2022/10/02 02:02:29;;;;;;;10.77;1.00;;;16.30;99.90;;;;;;6257906;28;20075;-83
2022/10/02 02:05:42;;;;;;;8.70;1.48;;;16.20;99.90;;;;;;6258445;28;20068;-83
2022/10/02 02:08:49;;;;;;;11.68;1.10;;;16.30;99.90;;;;;;6259418;28;20053;-82
2022/10/02 02:11:58;;;;;;;3.40;0.85;;;16.30;99.90;;;;;;6260339;28;20052;-83
2022/10/02 02:15:04;;;;;;;6.63;1.33;;;16.20;99.90;;;;;;6260008;28;20045;-83
2022/10/02 02:18:11;;;;;;;8.13;0.93;;;16.30;99.90;;;;;;6268898;28;20048;-82
2022/10/02 02:21:23;;;;;;;4.40;0.90;;;16.30;99.90;;;;;;6257800;28;20049;-84
2022/10/02 02:24:28;;;;;;;3.95;0.90;;;16.40;99.90;;;;;;6253931;28;20076;-82
2022/10/02 02:27:35;;;;;;;8.65;1.25;;;16.40;99.90;;;;;;6252546;28;20045;-83
2022/10/02 02:30:39;;;;;;;8.15;1.23;;;16.50;99.90;;;;;;6254475;28;20053;-84
2022/10/02 02:33:46;;;;;;;13.38;1.65;;;16.50;99.90;;;;;;6254160;28;20547;-83
2022/10/02 02:36:54;;;;;;;5.28;1.10;;;16.50;99.90;;;;;;6255069;28;20045;-83
2022/10/02 02:39:57;;;;;;;;;;;16.50;99.90;;;;;;6253858;28;20068;-83
2022/10/02 02:43:05;;;;;;;9.60;1.10;;;16.50;99.90;;;;;;6253421;28;19920;-83
2022/10/02 02:46:14;;;;;;;7.18;1.08;;;16.50;99.90;;;;;;6253342;28;20117;-83
2022/10/02 02:49:15;;;;;;;;;;;16.50;99.90;;;;;;6254422;28;20061;-84
2022/10/02 02:52:21;;;;;;;6.95;1.00;;;16.40;99.90;;;;;;6254217;28;19921;-84
2022/10/02 02:55:26;;;;;;;7.30;0.93;;;16.50;99.90;;;;;;6255264;28;20056;-83
2022/10/02 02:58:34;;;;;;;7.05;1.13;;;16.40;99.90;;;;;;6253449;28;20045;-84
2022/10/02 03:01:36;;;;;;;3.85;0.75;;;16.40;99.90;;;;;;6254021;28;20136;-83
2022/10/02 03:04:38;;;;;;;6.80;1.20;;;16.40;99.90;;;;;;6254326;28;20419;-84
2022/10/02 03:07:40;;;;;;;9.40;1.75;;;16.40;99.90;;;;;;6254453;28;20056;-84
2022/10/02 03:10:52;;;;;;;2.90;0.70;;;16.40;99.90;;;;;;6254232;28;20042;-84
2022/10/02 03:14:04;;;;;;;4.45;0.95;;;16.40;99.90;;;;;;6254189;28;20056;-83
2022/10/02 03:17:18;;;;;;;18.23;3.17;;;16.40;99.90;;;;;;6254077;28;20500;-84
2022/10/02 03:20:28;;;;;;;5.63;0.70;;;16.30;99.90;;;;;;6253597;28;20041;-83
2022/10/02 03:23:41;;;;;;;12.80;2.03;;;16.30;99.90;;;;;;6251244;28;20496;-83
2022/10/02 03:26:46;;;;;;;13.73;1.60;;;16.40;99.90;;;;;;6248194;28;20056;-82
2022/10/02 03:29:55;;;;;;;3.47;0.63;;;16.40;99.90;;;;;;6247780;28;20533;-82
2022/10/02 03:32:59;;;;;;;6.82;0.88;;;16.30;99.90;;;;;;6248820;28;20041;-81
2022/10/02 03:36:01;;;;;;;10.85;1.15;;;16.30;99.90;;;;;;6248191;28;20131;-81
2022/10/02 03:39:06;;;;;;;4.55;0.88;;;16.30;99.90;;;;;;6248885;28;20057;-85
2022/10/02 03:42:11;;;;;;;9.52;0.68;;;16.30;99.90;;;;;;6248529;28;20041;-84
2022/10/02 03:45:14;;;;;;;5.00;0.73;;;16.30;99.90;;;;;;6253505;28;20060;-83
2022/10/02 03:48:16;;;;;;;6.00;0.90;;;16.20;99.90;;;;;;6250997;28;20455;-84
2022/10/02 03:51:18;;;;;;;10.23;2.75;;;16.20;99.90;;;;;;6248024;28;20407;-85
2022/10/02 03:54:21;;;;;;;1.33;0.70;;;16.20;99.90;;;;;;6251519;28;20414;-85
2022/10/02 03:57:25;;;;;;;5.90;0.82;;;16.20;99.90;;;;;;6256097;28;20049;-82
2022/10/02 04:00:34;;;;;;;7.47;2.35;;;16.10;99.90;;;;;;6254584;28;20435;-84
2022/10/02 04:03:40;;;;;;;7.70;1.73;;;16.10;99.90;;;;;;6255037;28;20502;-84
2022/10/02 04:06:45;;;;;;;9.68;1.45;;;15.90;99.90;;;;;;6259497;28;20060;-84
2022/10/02 04:09:53;;;;;;;11.60;2.92;;;15.90;99.90;;;;;;6259187;28;20065;-84
2022/10/02 04:13:02;;;;;;;5.28;1.50;;;15.80;99.90;;;;;;6260070;28;20459;-84
2022/10/02 04:16:12;;;;;;;10.13;1.63;;;15.80;99.90;;;;;;6252307;28;20049;-84
2022/10/02 04:19:21;;;;;;;4.30;0.68;;;15.80;99.90;;;;;;6251651;28;20045;-85
2022/10/02 04:22:31;;;;;;;9.13;1.55;;;15.80;99.90;;;;;;6250988;28;20041;-85
2022/10/02 04:25:39;;;;;;;8.35;1.10;;;15.80;99.90;;;;;;6251454;28;20057;-84
2022/10/02 04:28:45;;;;;;;4.10;0.95;;;15.70;99.90;;;;;;6251064;28;20062;-84
2022/10/02 04:32:07;;;;;;;5.75;1.45;;;15.70;99.90;;;;;;6251741;28;20049;-84
2022/10/02 04:35:14;;;;;;;5.82;1.02;;;15.70;99.90;;;;;;6254100;28;20423;-84
2022/10/02 04:38:33;;;;;;;5.30;1.67;;;15.80;99.90;;;;;;6258142;28;20050;-84
2022/10/02 04:41:52;;;;;;;10.02;1.40;;;15.80;99.90;;;;;;6258726;28;20049;-84
2022/10/02 04:45:25;;;;;;;11.40;1.83;;;15.90;99.90;;;;;;6259372;28;20045;-84
2022/10/02 04:48:52;;;;;;;7.75;1.48;;;15.90;99.90;;;;;;6259186;28;20053;-84
2022/10/02 04:52:08;;;;;;;8.48;1.90;;;15.90;99.90;;;;;;6256157;28;20052;-84
2022/10/02 04:55:44;;;;;;;10.63;2.65;;;16.00;99.90;;;;;;6259068;28;20042;-84
2022/10/02 04:58:58;;;;;;;10.05;1.65;;;16.00;99.90;;;;;;6257064;28;20041;-84
2022/10/02 05:02:14;;;;;;;7.80;1.80;;;15.90;99.90;;;;;;6257977;28;20049;-83
2022/10/02 05:05:30;;;;;;;7.50;1.33;;;15.90;99.90;;;;;;6258840;28;20050;-84
2022/10/02 05:08:46;;;;;;;12.35;1.73;;;15.90;99.90;;;;;;6257924;28;20046;-84
2022/10/02 05:11:58;;;;;;;11.77;1.98;;;15.90;99.90;;;;;;6257501;28;20042;-84
2022/10/02 05:15:18;;;;;;;7.50;1.55;;;15.80;99.90;;;;;;6258353;28;20041;-84
2022/10/02 05:18:44;;;;;;;9.45;1.80;;;15.80;99.90;;;;;;6257569;28;20049;-83
2022/10/02 05:22:07;;;;;;;5.18;1.63;;;15.70;99.90;;;;;;6257984;28;20541;-83
2022/10/02 05:25:24;;;;;;;9.52;1.92;;;15.70;99.90;;;;;;6253003;28;20402;-84
2022/10/02 05:28:48;;;;;;;4.78;1.05;;;15.60;99.90;;;;;;6252602;28;20056;-82
2022/10/02 05:32:04;;;;;;;13.48;2.00;;;15.70;99.90;;;;;;6252393;28;20055;-82
2022/10/02 05:35:20;;;;;;;16.95;3.90;;;15.60;99.90;;;;;;6253756;28;20523;-83
2022/10/02 05:38:46;;;;;;;10.43;1.52;;;15.50;99.90;;;;;;6253774;28;20049;-83
2022/10/02 05:41:58;;;;;;;12.30;2.05;;;15.40;99.90;;;;;;6252395;28;20045;-82
2022/10/02 05:45:04;;;;;;;8.65;2.13;;;15.40;99.90;;;;;;6250723;28;20049;-83
2022/10/02 05:48:14;;;;;;;9.38;1.80;;;15.30;99.90;;;;;;6252239;28;20427;-83
2022/10/02 05:51:21;;;;;;;7.47;1.55;;;15.30;99.90;;;;;;6253944;28;20052;-84
2022/10/02 05:54:35;;;;;;;15.00;2.25;;;15.20;99.90;;;;;;6253102;28;20045;-82
2022/10/02 05:57:42;;;;;;;5.38;1.42;;;15.10;99.90;;;;;;6249979;28;20056;-83
2022/10/02 06:00:50;;;;;;;10.60;1.40;;;15.00;99.90;;;;;;6251162;28;20519;-83
2022/10/02 06:03:56;;;;;;;10.10;2.13;;;15.00;99.90;;;;;;6252811;28;20538;-83
2022/10/02 06:07:05;;;;;;;8.40;1.75;;;15.00;99.90;;;;;;6253126;28;20045;-84
2022/10/02 06:10:14;;;;;;;6.90;1.73;;;14.90;99.90;;;;;;6253647;28;20041;-84
2022/10/02 06:13:23;;;;;;;9.32;1.70;;;15.00;99.90;;;;;;6254510;28;20050;-84
2022/10/02 06:16:32;;;;;;;15.68;2.42;;;15.00;99.90;;;;;;6254602;28;20052;-84
2022/10/02 06:19:38;;;;;;;4.68;1.77;;;15.10;99.90;;;;;;6250637;28;20045;-83
2022/10/02 06:22:44;;;;;;;6.10;1.83;;;15.20;99.90;;;;;;6251290;28;20041;-83
2022/10/02 06:25:52;;;;;;;8.65;2.47;;;15.30;99.90;;;;;;6251855;28;20057;-83
2022/10/02 06:29:01;;;;;;;5.78;1.70;;;15.30;99.90;;;;;;6251730;28;20050;-83
2022/10/02 06:32:16;;;;;;;13.80;3.15;;;15.30;99.90;;;;;;6252168;28;20047;-83
2022/10/02 06:35:30;;;;;;;4.18;1.20;;;15.30;99.90;;;;;;6252549;28;20049;-84
2022/10/02 06:38:47;;;;;;;11.20;1.17;;;15.30;99.90;;;;;;6252429;28;20061;-83
2022/10/02 06:42:00;;;;;;;12.02;2.22;;;15.30;99.90;;;;;;6252350;28;20045;-83
2022/10/02 06:45:10;;;;;;;13.05;1.70;;;15.20;99.90;;;;;;6253637;28;20050;-83
2022/10/02 06:48:24;;;;;;;7.57;1.88;;;15.30;99.90;;;;;;6249082;28;20553;-82
2022/10/02 06:51:38;;;;;;;15.93;1.98;;;15.30;99.90;;;;;;6248343;28;20057;-84
2022/10/02 06:54:57;;;;;;;4.80;1.90;;;15.30;99.90;;;;;;6248491;28;20052;-86
2022/10/02 06:58:25;;;;;;;12.43;2.42;;;15.40;99.90;;;;;;6248437;28;20046;-83
2022/10/02 07:01:41;;;;;;;7.60;1.20;;;15.50;99.90;;;;;;6249854;28;20139;-84
2022/10/02 07:04:55;;;;;;;5.00;1.67;;;15.40;99.90;;;;;;6250293;28;20046;-84
2022/10/02 07:08:05;;;;;;;10.55;2.15;;;15.50;99.90;;;;;;6250273;28;20439;-84
2022/10/02 07:11:17;;;;;;;4.22;1.75;;;15.50;99.90;;;;;;6259124;28;20045;-84
2022/10/02 07:14:33;;;;;;;9.00;1.50;;;15.40;99.90;;;;;;6253835;28;20049;-84
2022/10/02 07:17:49;;;;;;;4.45;1.38;;;15.40;99.90;;;;;;6255758;28;20054;-84
2022/10/02 07:21:01;;;;;;;8.85;1.58;;;15.40;99.90;;;;;;6256318;28;20045;-84
2022/10/02 07:24:16;;;;;;;10.82;1.50;;;15.40;99.90;;;;;;6254659;28;20534;-84
2022/10/02 07:27:23;;;;;;;5.38;1.23;;;15.30;99.90;;;;;;6253070;28;20045;-84
2022/10/02 07:30:33;;;;;;;6.03;1.20;;;15.30;99.90;;;;;;6249624;28;20060;-85
2022/10/02 07:33:50;;;;;;;4.50;1.20;;;15.30;99.90;;;;;;6236636;28;20045;-85
2022/10/02 07:37:05;;;;;;;5.43;1.38;;;15.30;99.90;;;;;;6247549;28;20053;-85
2022/10/02 07:40:24;;;;;;;6.85;1.10;;;15.20;99.90;;;;;;6261693;28;20539;-84
2022/10/02 07:43:45;;;;;;;6.97;1.20;;;15.20;99.90;;;;;;6268411;28;20055;-83
2022/10/02 07:47:00;;;;;;;4.93;1.02;;;15.20;99.90;;;;;;6269162;28;20174;-84
2022/10/02 07:50:11;;;;;;;4.30;1.08;;;15.20;99.90;;;;;;6247177;28;20045;-83
2022/10/02 07:53:20;;;;;;;5.93;1.63;;;15.10;99.90;;;;;;6248468;28;20045;-84
2022/10/02 07:56:23;;;;;;;5.75;1.35;;;15.10;99.90;;;;;;6248989;28;20045;-83
2022/10/02 07:59:30;;;;;;;4.65;1.35;;;15.10;99.90;;;;;;6248460;28;20057;-84
2022/10/02 08:02:39;;;;;;;7.68;1.42;;;15.10;99.90;;;;;;6249370;28;20045;-82
2022/10/02 08:05:43;;;;;;;25.27;13.43;;;15.20;99.90;;;;;;6249860;28;20045;-85
2022/10/02 08:08:51;;;;;;;18.67;9.38;;;15.30;99.90;;;;;;6256324;28;20037;-83
2022/10/02 08:11:56;;;;;;;10.15;3.03;;;15.40;99.90;;;;;;6264594;28;20124;-84
2022/10/02 08:15:00;;;;;;;17.15;7.60;;;15.60;99.90;;;;;;6275689;28;20118;-85
2022/10/02 08:18:12;;;;;;;20.98;10.77;;;15.70;99.90;;;;;;6274976;28;20171;-83
2022/10/02 08:21:18;;;;;;;26.20;11.80;;;15.90;99.90;;;;;;6277027;28;20048;-84
2022/10/02 08:24:53;;;;;;;49.90;25.42;;;16.10;99.90;;;;;;6280443;28;20051;-85
2022/10/02 08:28:13;;;;;;;29.30;14.80;;;16.10;99.90;;;;;;6277905;28;20135;-85
2022/10/02 08:31:15;;;;;;;21.00;10.15;;;16.30;99.90;;;;;;6282673;28;20059;-84
2022/10/02 08:34:23;;;;;;;20.60;9.25;;;16.20;99.90;;;;;;6283164;28;20045;-83
2022/10/02 08:37:33;;;;;;;19.55;7.43;;;16.30;99.90;;;;;;6282828;28;20132;-84
2022/10/02 08:41:19;;;;;;;6.05;3.03;;;16.30;99.90;;;;;;6278673;28;20037;-85
2022/10/02 08:45:00;;;;;;;5.82;2.88;;;16.30;99.90;;;;;;6257236;28;20156;-83
2022/10/02 08:48:38;;;;;;;8.68;3.17;;;16.20;99.90;;;;;;6258060;28;20045;-85
2022/10/02 08:52:08;;;;;;;6.07;3.00;;;16.00;99.90;;;;;;6248071;28;20099;-83
2022/10/02 08:55:41;;;;;;;5.70;1.40;;;15.90;99.90;;;;;;6257045;28;20048;-84
2022/10/02 08:59:17;;;;;;;8.60;2.42;;;15.90;99.90;;;;;;6256551;28;20046;-85
2022/10/02 09:03:02;;;;;;;10.38;2.85;;;16.00;99.90;;;;;;6236491;28;20056;-84
2022/10/02 09:14:09;;;;;;;4.05;1.23;;;15.70;99.90;;;;;;6254854;28;20045;-84
2022/10/02 09:17:39;;;;;;;2.05;0.88;;;15.60;99.90;;;;;;6257357;28;20064;-84
2022/10/02 09:20:47;;;;;;;6.00;1.02;;;15.60;99.90;;;;;;6251474;28;20080;-85
2022/10/02 09:24:42;;;;;;;1.88;1.13;;;15.60;99.90;;;;;;6262158;28;20044;-85
2022/10/02 09:28:13;;;;;;;3.70;0.82;;;15.70;99.90;;;;;;6269963;28;20051;-85
2022/10/02 09:31:38;;;;;;;6.53;1.77;;;15.90;99.90;;;;;;6277409;28;20045;-84
2022/10/02 09:35:20;;;;;;;2.38;1.33;;;16.00;99.90;;;;;;6275882;28;20049;-86
2022/10/02 09:38:51;;;;;;;2.85;0.73;;;16.10;99.90;;;;;;6277361;28;20499;-84
2022/10/02 09:42:23;;;;;;;30.58;17.35;;;16.20;99.90;;;;;;6270350;28;20053;-85
2022/10/02 09:45:51;;;;;;;14.50;8.68;;;16.30;99.90;;;;;;6268950;28;20041;-85
2022/10/02 09:49:43;;;;;;;8.07;2.07;;;16.40;99.90;;;;;;6266082;28;20065;-85
2022/10/02 09:53:14;;;;;;;3.78;0.77;;;16.40;99.90;;;;;;6240211;28;20047;-85
2022/10/02 09:56:55;;;;;;;1.52;0.57;;;16.40;99.90;;;;;;6270048;28;20049;-85
2022/10/02 10:00:18;;;;;;;2.45;0.90;;;16.30;99.90;;;;;;6234274;28;20049;-85
2022/10/02 10:03:44;;;;;;;4.90;1.67;;;16.30;99.90;;;;;;6269921;28;20037;-86
2022/10/02 10:07:13;;;;;;;4.88;1.70;;;16.40;99.90;;;;;;6274679;28;20395;-85
2022/10/02 10:10:42;;;;;;;2.28;1.13;;;16.50;99.90;;;;;;6270337;28;20550;-85
2022/10/02 10:14:36;;;;;;;5.70;1.38;;;16.40;99.90;;;;;;6258374;28;20136;-85
2022/10/02 10:18:10;;;;;;;9.48;0.60;;;16.30;99.90;;;;;;6180885;28;20504;-85
2022/10/02 10:21:51;;;;;;;3.15;1.42;;;16.20;99.90;;;;;;6205085;28;20061;-86
2022/10/02 10:25:32;;;;;;;2.33;0.40;;;16.20;99.90;;;;;;6269431;28;20049;-85
2022/10/02 10:28:59;;;;;;;1.38;0.30;;;16.10;99.90;;;;;;6269065;28;20056;-85
2022/10/02 10:40:42;;;;;;;5.00;0.75;;;15.90;99.90;;;;;;6283924;28;20056;-85
2022/10/02 10:44:43;;;;;;;2.28;0.57;;;16.00;99.90;;;;;;6263923;28;20045;-85
2022/10/02 10:48:08;;;;;;;;;;;16.10;99.90;;;;;;6256438;28;20136;-85
2022/10/02 10:51:47;;;;;;;1.85;1.02;;;16.20;99.90;;;;;;6257845;28;19921;-85
2022/10/02 10:55:18;;;;;;;0.90;0.27;;;16.30;99.90;;;;;;6255395;28;20042;-85
2022/10/02 11:02:34;;;;;;;0.68;0.20;;;16.30;99.90;;;;;;6250442;28;20041;-85
2022/10/02 11:06:12;;;;;;;0.95;0.28;;;16.40;99.90;;;;;;6248873;28;20055;-86
2022/10/02 11:09:54;;;;;;;1.10;0.20;;;16.50;99.90;;;;;;6214543;28;20045;-85
2022/10/02 11:13:38;;;;;;;0.22;0.10;;;16.70;99.90;;;;;;6233344;28;20140;-86
2022/10/02 11:17:09;;;;;;;0.30;0.13;;;16.70;99.90;;;;;;6253272;28;20064;-84
2022/10/02 11:20:28;;;;;;;0.45;0.30;;;16.60;99.90;;;;;;6254774;28;20420;-85
2022/10/02 11:23:56;;;;;;;2.30;0.22;;;16.50;99.90;;;;;;6252125;28;20052;-84
2022/10/02 11:27:16;;;;;;;5.10;1.33;;;16.50;99.90;;;;;;6255708;28;20045;-85
2022/10/02 11:30:22;;;;;;;0.85;0.40;;;16.50;99.90;;;;;;6255888;28;20049;-85
2022/10/02 11:37:30;;;;;;;0.28;0.15;;;16.40;99.90;;;;;;6253976;28;20049;-84
2022/10/02 11:45:13;;;;;;;0.73;0.35;;;16.50;99.90;;;;;;6125622;28;20052;-85
2022/10/02 11:48:45;;;;;;;2.22;0.40;;;16.40;99.90;;;;;;6244189;28;20150;-85
2022/10/02 11:52:20;;;;;;;1.35;0.50;;;16.50;99.90;;;;;;6256995;28;20046;-85
2022/10/02 11:55:33;;;;;;;1.20;0.55;;;16.70;99.90;;;;;;6243729;28;20055;-84
2022/10/02 11:58:47;;;;;;;4.00;1.05;;;16.80;99.90;;;;;;6252893;28;20064;-84
2022/10/02 12:01:54;;;;;;;1.00;0.30;;;16.90;99.90;;;;;;6267313;28;20055;-85
2022/10/02 12:05:14;;;;;;;0.90;0.30;;;16.80;99.90;;;;;;6254148;28;20411;-85
2022/10/02 12:08:29;;;;;;;1.02;0.50;;;16.80;99.90;;;;;;6260885;28;20041;-84
2022/10/02 12:11:42;;;;;;;4.65;0.80;;;16.80;99.90;;;;;;6271186;28;20053;-85
2022/10/02 12:14:55;;;;;;;0.65;0.40;;;16.80;99.90;;;;;;6280356;28;20454;-85
2022/10/02 12:18:21;;;;;;;1.38;0.70;;;16.90;99.90;;;;;;6275321;28;20053;-85
2022/10/02 12:28:41;;;;;;;2.15;1.35;;;17.20;99.90;;;;;;6285342;28;20049;-84
2022/10/02 12:31:51;;;;;;;3.38;0.90;;;17.30;99.90;;;;;;6285190;28;20048;-84
2022/10/02 12:35:06;;;;;;;1.95;1.30;;;17.30;99.90;;;;;;6283666;28;20045;-84
2022/10/02 12:38:24;;;;;;;1.77;0.70;;;17.30;99.90;;;;;;6284232;28;20059;-84
2022/10/02 12:45:53;;;;;;;2.25;1.17;;;17.30;99.90;;;;;;6242175;28;20053;-84
2022/10/02 12:49:08;;;;;;;3.17;1.83;;;17.30;99.90;;;;;;6283761;28;20114;-84
2022/10/02 12:52:39;;;;;;;2.22;1.40;;;17.30;99.90;;;;;;6282727;28;20442;-85
2022/10/02 12:56:10;;;;;;;2.10;1.42;;;17.30;99.90;;;;;;6281314;28;20045;-85
2022/10/02 12:59:21;;;;;;;3.30;1.33;;;17.30;99.90;;;;;;6279089;28;20049;-84
2022/10/02 13:03:04;;;;;;;4.90;1.88;;;17.20;99.90;;;;;;6277995;28;20053;-83
2022/10/02 13:06:41;;;;;;;2.50;1.60;;;17.20;99.90;;;;;;6264473;28;20523;-83
2022/10/02 13:09:51;;;;;;;5.10;2.40;;;17.10;99.90;;;;;;6274803;28;20092;-84
2022/10/02 13:13:11;;;;;;;4.07;1.77;;;17.10;99.90;;;;;;6277308;28;20060;-83
2022/10/02 13:16:23;;;;;;;3.80;2.63;;;17.00;99.90;;;;;;6278718;28;20076;-85
2022/10/02 13:19:35;;;;;;;4.13;2.67;;;16.90;99.90;;;;;;6278802;28;20407;-83
2022/10/02 13:22:45;;;;;;;5.35;4.00;;;16.90;99.90;;;;;;6278695;28;20056;-84
2022/10/02 13:26:05;;;;;;;4.28;3.38;;;16.90;99.90;;;;;;6278302;28;20487;-84
2022/10/02 13:29:28;;;;;;;5.72;3.08;;;16.90;99.90;;;;;;6280707;28;20056;-85
2022/10/02 13:32:44;;;;;;;6.60;3.60;;;16.90;99.90;;;;;;6280889;28;20133;-84
2022/10/02 13:36:06;;;;;;;6.53;3.65;;;16.80;99.90;;;;;;6279169;28;20641;-85
2022/10/02 13:39:28;;;;;;;5.10;3.40;;;16.80;99.90;;;;;;6272205;28;20045;-85
2022/10/02 13:42:41;;;;;;;3.92;3.25;;;16.70;99.90;;;;;;6274450;28;20053;-82
2022/10/02 13:45:50;;;;;;;5.15;3.90;;;16.80;99.90;;;;;;6273457;28;20041;-82
2022/10/02 13:49:06;;;;;;;4.90;3.70;;;16.60;99.90;;;;;;6279626;28;20060;-82
2022/10/02 13:52:24;;;;;;;7.43;4.22;;;16.50;99.90;;;;;;6283550;28;20055;-82
2022/10/02 13:55:28;;;;;;;10.45;3.88;;;16.50;99.90;;;;;;6284994;28;20045;-83
2022/10/02 13:58:55;;;;;;;4.05;2.75;;;16.50;99.90;;;;;;6284167;28;20052;-83
2022/10/02 14:02:13;;;;;;;4.65;2.65;;;16.40;99.90;;;;;;6285677;28;20525;-83
2022/10/02 14:05:32;;;;;;;3.80;2.78;;;16.30;99.90;;;;;;6282338;28;20391;-81
2022/10/02 14:08:57;;;;;;;3.45;2.30;;;16.20;99.90;;;;;;6269552;28;20052;-81
2022/10/02 14:12:22;;;;;;;3.45;2.42;;;16.30;99.90;;;;;;6268428;28;20044;-82
2022/10/02 14:23:44;;;;;;;5.60;2.70;;;16.30;99.90;;;;;;6247685;28;20061;-85
2022/10/02 14:27:02;;;;;;;11.23;6.18;;;16.40;99.90;;;;;;6283176;28;20473;-83
2022/10/02 14:30:23;;;;;;;5.00;3.22;;;16.40;99.90;;;;;;6279868;28;20044;-85
2022/10/02 14:33:47;;;;;;;7.45;3.67;;;16.30;99.90;;;;;;6283136;28;20241;-84
2022/10/02 14:36:58;;;;;;;5.97;3.03;;;16.20;99.90;;;;;;6281529;28;20045;-82
2022/10/02 14:40:09;;;;;;;3.53;2.50;;;16.20;99.90;;;;;;6267062;28;20052;-83
2022/10/02 14:43:42;;;;;;;6.32;4.35;;;16.10;99.90;;;;;;6254084;28;20128;-84
2022/10/02 14:46:58;;;;;;;2.28;1.75;;;16.10;99.90;;;;;;6264234;28;20045;-82
2022/10/02 14:50:46;;;;;;;3.55;2.10;;;16.10;99.90;;;;;;6276160;28;20049;-83
2022/10/02 14:54:16;;;;;;;5.35;3.63;;;16.10;99.90;;;;;;6201158;28;20053;-83
2022/10/02 14:57:32;;;;;;;20.00;6.13;;;16.10;99.90;;;;;;6278084;28;20509;-83
2022/10/02 15:00:44;;;;;;;3.13;1.30;;;16.10;99.90;;;;;;6278917;28;20041;-85
2022/10/02 15:07:42;;;;;;;2.55;1.50;;;15.90;99.90;;;;;;6289312;28;20041;-83
2022/10/02 15:10:56;;;;;;;4.28;1.35;;;15.90;99.90;;;;;;6261942;28;20049;-85
2022/10/02 15:14:10;;;;;;;5.82;1.17;;;15.80;99.90;;;;;;6249226;28;20049;-85
2022/10/02 15:20:47;;;;;;;3.00;0.88;;;15.70;99.90;;;;;;6251827;28;20049;-83
2022/10/02 15:23:50;;;;;;;2.33;1.20;;;15.70;99.90;;;;;;6250735;28;20069;-83
2022/10/02 15:26:57;;;;;;;1.50;0.80;;;15.70;99.90;;;;;;6249757;28;20046;-84
2022/10/02 15:30:17;;;;;;;3.60;1.13;;;15.70;99.90;;;;;;6250338;28;20053;-85
2022/10/02 15:33:29;;;;;;;2.42;1.00;;;15.80;99.90;;;;;;6251025;28;20049;-84
2022/10/02 15:36:52;;;;;;;7.28;0.93;;;15.80;99.90;;;;;;6256775;28;20109;-86
2022/10/02 15:40:10;;;;;;;1.30;0.80;;;15.70;99.90;;;;;;6264923;28;20041;-84
2022/10/02 15:43:35;;;;;;;3.03;0.73;;;15.70;99.90;;;;;;6256073;28;20045;-84
2022/10/02 15:46:48;;;;;;;3.03;0.57;;;15.70;99.90;;;;;;6257243;28;20484;-84
2022/10/02 15:50:10;;;;;;;2.35;0.93;;;15.60;99.90;;;;;;6278381;28;20045;-84
2022/10/02 15:53:40;;;;;;;2.05;1.08;;;15.60;99.90;;;;;;6287931;28;20420;-84
2022/10/02 15:56:55;;;;;;;2.33;1.65;;;15.50;99.90;;;;;;6282875;28;20053;-83
2022/10/02 16:00:09;;;;;;;6.35;3.85;;;15.30;99.90;;;;;;6283156;28;20049;-84
2022/10/02 16:03:18;;;;;;;5.65;3.10;;;15.30;99.90;;;;;;6284137;28;20049;-84
2022/10/02 16:06:33;;;;;;;6.88;2.20;;;15.30;99.90;;;;;;6285160;28;20050;-85
2022/10/02 16:09:49;;;;;;;2.15;1.65;;;15.40;99.90;;;;;;6282810;28;20060;-84
2022/10/02 16:13:24;;;;;;;3.83;0.60;;;15.40;99.90;;;;;;6283506;28;20049;-83
2022/10/02 16:16:48;;;;;;;1.92;1.13;;;15.30;99.90;;;;;;6251026;28;20051;-81
2022/10/02 16:20:07;;;;;;;3.05;0.98;;;15.30;99.90;;;;;;6274899;28;20045;-82
2022/10/02 16:23:31;;;;;;;3.05;1.00;;;15.20;99.90;;;;;;6285986;28;20053;-82
2022/10/02 16:27:01;;;;;;;2.72;1.70;;;15.40;99.90;;;;;;6284065;28;20052;-83
2022/10/02 16:30:10;;;;;;;6.05;2.65;;;15.60;99.90;;;;;;6282649;28;20059;-82
2022/10/02 16:33:20;;;;;;;10.63;3.22;;;15.70;99.90;;;;;;6275931;28;20581;-82
2022/10/02 16:36:28;;;;;;;6.13;2.85;;;15.70;99.90;;;;;;6288639;28;20055;-82
2022/10/02 16:39:49;;;;;;;3.20;1.30;;;15.70;99.90;;;;;;6273404;28;20041;-82
2022/10/02 16:42:56;;;;;;;5.45;0.90;;;15.70;99.90;;;;;;6278530;28;20044;-82
2022/10/02 16:46:05;;;;;;;3.80;1.30;;;15.80;99.90;;;;;;6287966;28;20067;-83
2022/10/02 16:49:18;;;;;;;1.92;1.10;;;15.80;99.90;;;;;;6271194;28;20499;-83
2022/10/02 16:52:29;;;;;;;4.63;1.95;;;15.80;99.90;;;;;;6257706;28;20046;-82
2022/10/02 16:55:35;;;;;;;5.95;1.20;;;15.60;99.90;;;;;;6256943;28;20038;-81
2022/10/02 16:58:44;;;;;;;1.63;0.77;;;15.40;99.90;;;;;;6258816;28;20420;-82
2022/10/02 17:01:52;;;;;;;1.77;0.85;;;15.30;99.90;;;;;;6256189;28;20650;-81
2022/10/02 17:05:01;;;;;;;3.17;1.43;;;15.30;99.90;;;;;;6258959;28;20087;-81
2022/10/02 17:08:10;;;;;;;7.18;3.88;;;15.30;99.90;;;;;;6260606;28;20423;-80
2022/10/02 17:11:20;;;;;;;9.27;4.90;;;15.40;99.90;;;;;;6264747;28;20061;-81
2022/10/02 17:14:29;;;;;;;3.08;1.00;;;15.30;99.90;;;;;;6260361;28;20106;-83
2022/10/02 17:17:46;;;;;;;6.28;1.63;;;15.30;99.90;;;;;;6256024;28;20481;-82
2022/10/02 17:20:52;;;;;;;2.50;1.42;;;15.20;99.90;;;;;;6256580;28;20047;-82
2022/10/02 17:24:24;;;;;;;4.20;1.30;;;15.20;99.90;;;;;;6255147;28;20095;-82
2022/10/02 17:27:40;;;;;;;10.90;1.75;;;15.20;99.90;;;;;;6254891;28;20046;-81
2022/10/02 17:30:56;;;;;;;6.45;1.58;;;15.10;99.90;;;;;;6256287;28;20049;-83
2022/10/02 17:34:01;;;;;;;5.85;1.13;;;15.10;99.90;;;;;;6254001;28;20060;-82
2022/10/02 17:37:26;;;;;;;2.80;0.65;;;15.00;99.90;;;;;;6254614;28;20045;-82
2022/10/02 17:40:35;;;;;;;4.35;1.27;;;15.00;99.90;;;;;;6271397;28;20040;-82
2022/10/02 17:43:42;;;;;;;1.27;0.85;;;15.10;99.90;;;;;;6280541;28;20056;-81
2022/10/02 17:47:15;;;;;;;2.17;0.93;;;15.10;99.90;;;;;;6279366;28;20049;-81
2022/10/02 17:50:44;;;;;;;4.45;0.80;;;15.10;99.90;;;;;;6276106;28;20049;-81
2022/10/02 17:57:46;;;;;;;4.40;1.58;;;15.20;99.90;;;;;;6255821;28;20072;-83
2022/10/02 18:01:04;;;;;;;2.33;1.30;;;15.20;99.90;;;;;;6255107;28;20045;-82